createdAt,value
2018-12-15T00:02:05.711Z,102073.98
2018-12-15T00:04:36.629Z,102083.53
2018-12-15T00:07:20.687Z,102078.81
2018-12-15T00:09:50.475Z,102075.83
2018-12-15T00:12:19.592Z,102074.52
2018-12-15T00:14:48.515Z,102080.20
2018-12-15T00:17:17.456Z,102088.48
2018-12-15T00:19:46.293Z,102092.00
2018-12-15T00:22:15.449Z,102097.73
2018-12-15T00:24:44.325Z,102097.23
2018-12-15T00:27:13.740Z,102092.95
2018-12-15T00:29:42.639Z,102096.02
2018-12-15T00:32:11.478Z,102093.00
2018-12-15T00:34:40.303Z,102095.52
2018-12-15T00:37:09.199Z,102101.60
2018-12-15T00:39:38.081Z,102096.92
2018-12-15T00:42:06.984Z,102102.15
2018-12-15T00:44:35.847Z,102098.23
2018-12-15T00:47:04.756Z,102096.92
2018-12-15T00:49:33.564Z,102099.13
2018-12-15T00:52:02.544Z,102100.94
2018-12-15T00:54:31.374Z,102108.33
2018-12-15T00:57:00.330Z,102110.89
2018-12-15T00:59:29.319Z,102099.37
2018-12-15T01:01:58.254Z,102106.76
2018-12-15T01:04:27.141Z,102109.38
2018-12-15T01:06:56.014Z,102115.91
2018-12-15T01:09:24.950Z,102116.31
2018-12-15T01:11:53.821Z,102111.89
2018-12-15T01:14:22.865Z,102121.89
2018-12-15T01:16:51.769Z,102125.05
2018-12-15T01:19:20.747Z,102134.64
2018-12-15T01:21:49.627Z,102140.73
2018-12-15T01:24:18.516Z,102146.81
2018-12-15T01:26:47.476Z,102149.88
2018-12-15T01:29:16.316Z,102154.73
2018-12-15T01:31:45.213Z,102153.91
2018-12-15T01:34:14.172Z,102162.20
2018-12-15T01:36:42.973Z,102168.87
2018-12-15T01:39:11.860Z,102173.60
2018-12-15T01:41:40.668Z,102175.27
2018-12-15T01:44:09.488Z,102179.14
2018-12-15T01:46:38.462Z,102175.63
2018-12-15T01:49:07.433Z,102177.31
2018-12-15T01:51:36.333Z,102179.14
2018-12-15T01:54:05.729Z,102187.08
2018-12-15T01:56:34.620Z,102185.90
2018-12-15T01:59:03.460Z,102179.63
2018-12-15T02:01:32.297Z,102177.79
2018-12-15T02:04:01.301Z,102183.83
2018-12-15T02:06:30.136Z,102180.31
2018-12-15T02:08:58.944Z,102188.15
2018-12-15T02:11:29.811Z,102184.32
2018-12-15T02:13:58.676Z,102184.84
2018-12-15T02:16:27.574Z,102184.94
2018-12-15T02:18:56.461Z,102177.09
2018-12-15T02:21:25.465Z,102181.42
2018-12-15T02:23:55.746Z,102183.13
2018-12-15T02:26:24.564Z,102181.02
2018-12-15T02:28:53.453Z,102186.64
2018-12-15T02:31:23.938Z,102181.42
2018-12-15T02:33:52.772Z,102176.28
2018-12-15T02:36:21.768Z,102175.47
2018-12-15T02:38:50.660Z,102174.57
2018-12-15T02:41:19.628Z,102174.48
2018-12-15T02:43:48.576Z,102168.77
2018-12-15T02:46:17.456Z,102170.08
2018-12-15T02:48:46.591Z,102170.48
2018-12-15T02:51:16.872Z,102168.64
2018-12-15T02:53:45.746Z,102169.95
2018-12-15T02:56:14.640Z,102166.56
2018-12-15T02:58:43.513Z,102164.80
2018-12-15T03:01:12.925Z,102162.64
2018-12-15T03:03:41.808Z,102162.19
2018-12-15T03:06:10.697Z,102157.42
2018-12-15T03:08:39.598Z,102161.34
2018-12-15T03:11:08.487Z,102159.63
2018-12-15T03:13:38.300Z,102150.98
2018-12-15T03:16:08.078Z,102148.81
2018-12-15T03:18:37.646Z,102147.06
2018-12-15T03:21:07.104Z,102138.81
2018-12-15T03:23:36.019Z,102138.81
2018-12-15T03:26:04.844Z,102131.79
2018-12-15T03:28:33.761Z,102129.67
2018-12-15T03:31:02.781Z,102133.23
2018-12-15T03:33:32.635Z,102128.45
2018-12-15T03:36:02.234Z,102134.49
2018-12-15T03:38:32.189Z,102131.02
2018-12-15T03:41:01.262Z,102130.26
2018-12-15T03:43:30.133Z,102124.63
2018-12-15T03:45:58.981Z,102133.00
2018-12-15T03:48:28.021Z,102122.56
2018-12-15T03:50:56.870Z,102124.27
2018-12-15T03:53:26.367Z,102127.69
2018-12-15T03:55:55.186Z,102124.59
2018-12-15T03:58:24.157Z,102129.36
2018-12-15T04:00:53.045Z,102123.33
2018-12-15T04:03:22.948Z,102125.98
2018-12-15T04:05:52.465Z,102131.25
2018-12-15T04:08:21.510Z,102118.59
2018-12-15T04:10:50.363Z,102119.45
2018-12-15T04:13:19.284Z,102122.88
2018-12-15T04:15:48.146Z,102113.73
2018-12-15T04:18:17.039Z,102116.84
2018-12-15T04:20:45.915Z,102119.00
2018-12-15T04:23:14.818Z,102113.78
2018-12-15T04:25:43.714Z,102121.16
2018-12-15T04:28:13.812Z,102118.59
2018-12-15T04:30:43.217Z,102116.44
2018-12-15T04:33:12.112Z,102113.90
2018-12-15T04:35:40.994Z,102113.90
2018-12-15T04:38:09.881Z,102112.59
2018-12-15T04:40:40.093Z,102113.78
2018-12-15T04:43:08.989Z,102109.41
2018-12-15T04:45:37.893Z,102105.94
2018-12-15T04:48:11.082Z,102109.81
2018-12-15T04:50:37.586Z,102115.48
2018-12-15T04:53:06.513Z,102112.47
2018-12-15T04:55:35.365Z,102113.78
2018-12-15T04:58:04.329Z,102110.27
2018-12-15T05:00:33.702Z,102111.16
2018-12-15T05:03:02.612Z,102115.48
2018-12-15T05:05:31.719Z,102110.76
2018-12-15T05:08:00.580Z,102112.97
2018-12-15T05:10:29.497Z,102115.58
2018-12-15T05:12:58.372Z,102109.17
2018-12-15T05:15:27.235Z,102107.05
2018-12-15T05:17:56.124Z,102108.31
2018-12-15T05:20:24.994Z,102106.16
2018-12-15T05:22:53.909Z,102109.58
2018-12-15T05:25:23.816Z,102112.11
2018-12-15T05:27:52.733Z,102111.73
2018-12-15T05:30:21.708Z,102113.90
2018-12-15T05:32:50.599Z,102115.66
2018-12-15T05:35:19.499Z,102110.97
2018-12-15T05:37:48.374Z,102112.19
2018-12-15T05:40:17.203Z,102113.50
2018-12-15T05:42:46.057Z,102113.94
2018-12-15T05:45:14.944Z,102115.70
2018-12-15T05:47:43.819Z,102116.59
2018-12-15T05:50:12.835Z,102115.30
2018-12-15T05:52:43.360Z,102117.91
2018-12-15T05:55:12.243Z,102113.58
2018-12-15T05:57:41.145Z,102118.41
2018-12-15T06:00:10.152Z,102113.58
2018-12-15T06:02:38.373Z,102106.65
2018-12-15T06:05:07.896Z,102102.73
2018-12-15T06:07:36.810Z,102110.16
2018-12-15T06:10:06.367Z,102117.99
2018-12-15T06:12:36.256Z,102111.87
2018-12-15T06:15:05.984Z,102114.94
2018-12-15T06:17:35.876Z,102117.05
2018-12-15T06:20:05.474Z,102109.71
2018-12-15T06:22:34.660Z,102115.83
2018-12-15T06:25:03.645Z,102111.11
2018-12-15T06:27:32.619Z,102114.57
2018-12-15T06:30:01.520Z,102122.00
2018-12-15T06:32:30.540Z,102116.41
2018-12-15T06:34:59.501Z,102119.88
2018-12-15T06:37:30.132Z,102116.02
2018-12-15T06:39:58.506Z,102115.06
2018-12-15T06:42:27.416Z,102120.20
2018-12-15T06:44:56.341Z,102117.99
2018-12-15T06:47:25.383Z,102125.34
2018-12-15T06:49:54.455Z,102127.54
2018-12-15T06:52:23.299Z,102128.35
2018-12-15T06:54:52.185Z,102133.21
2018-12-15T06:57:21.306Z,102129.34
2018-12-15T06:59:50.254Z,102126.37
2018-12-15T07:02:19.116Z,102129.42
2018-12-15T07:04:48.156Z,102128.53
2018-12-15T07:07:17.037Z,102127.67
2018-12-15T07:09:46.024Z,102125.96
2018-12-15T07:12:15.009Z,102121.09
2018-12-15T07:14:44.146Z,102117.09
2018-12-15T07:17:13.004Z,102117.41
2018-12-15T07:19:42.464Z,102105.66
2018-12-15T07:22:11.327Z,102109.91
2018-12-15T07:24:40.182Z,102107.25
2018-12-15T07:27:09.061Z,102111.13
2018-12-15T07:29:37.956Z,102108.10
2018-12-15T07:32:07.318Z,102102.83
2018-12-15T07:34:36.129Z,102098.02
2018-12-15T07:37:05.148Z,102107.97
2018-12-15T07:39:34.155Z,102107.52
2018-12-15T07:42:03.484Z,102108.78
2018-12-15T07:44:32.423Z,102107.87
2018-12-15T07:47:01.253Z,102102.16
2018-12-15T07:49:30.626Z,102100.40
2018-12-15T07:51:58.505Z,102103.87
2018-12-15T07:54:27.394Z,102108.69
2018-12-15T07:56:56.267Z,102103.95
2018-12-15T07:59:25.153Z,102104.00
2018-12-15T08:01:54.041Z,102095.31
2018-12-15T08:04:22.944Z,102102.65
2018-12-15T08:06:51.849Z,102107.38
2018-12-15T08:09:20.692Z,102113.91
2018-12-15T08:11:54.972Z,102113.86
2018-12-15T08:14:23.909Z,102116.80
2018-12-15T08:16:52.872Z,102117.33
2018-12-15T08:19:21.921Z,102116.03
2018-12-15T08:21:50.927Z,102117.33
2018-12-15T08:24:19.821Z,102122.03
2018-12-15T08:26:48.689Z,102124.23
2018-12-15T08:29:17.569Z,102126.39
2018-12-15T08:31:46.469Z,102128.11
2018-12-15T08:34:15.317Z,102117.61
2018-12-15T08:36:44.160Z,102118.42
2018-12-15T08:39:13.033Z,102122.66
2018-12-15T08:41:41.924Z,102111.70
2018-12-15T08:44:10.825Z,102114.67
2018-12-15T08:46:39.790Z,102112.92
2018-12-15T08:49:08.692Z,102122.97
2018-12-15T08:51:37.741Z,102126.88
2018-12-15T08:54:06.588Z,102128.11
2018-12-15T08:56:35.468Z,102123.38
2018-12-15T08:59:05.600Z,102128.11
2018-12-15T09:01:34.473Z,102133.30
2018-12-15T09:04:03.484Z,102130.23
2018-12-15T09:06:33.491Z,102132.39
2018-12-15T09:09:02.912Z,102124.95
2018-12-15T09:11:31.790Z,102136.72
2018-12-15T09:14:00.661Z,102131.03
2018-12-15T09:16:29.546Z,102128.33
2018-12-15T09:18:58.521Z,102135.77
2018-12-15T09:21:27.456Z,102139.64
2018-12-15T09:23:56.276Z,102132.16
2018-12-15T09:26:25.229Z,102135.63
2018-12-15T09:28:54.069Z,102138.19
2018-12-15T09:31:23.060Z,102137.74
2018-12-15T09:33:51.929Z,102144.68
2018-12-15T09:36:20.980Z,102147.79
2018-12-15T09:38:49.940Z,102144.27
2018-12-15T09:41:18.880Z,102155.54
2018-12-15T09:43:47.792Z,102148.07
2018-12-15T09:46:16.722Z,102141.98
2018-12-15T09:48:45.592Z,102139.55
2018-12-15T09:51:14.426Z,102136.03
2018-12-15T09:53:43.350Z,102135.53
2018-12-15T09:56:12.339Z,102130.40
2018-12-15T09:58:42.014Z,102130.00
2018-12-15T10:01:11.912Z,102130.90
2018-12-15T10:03:40.735Z,102123.55
2018-12-15T10:06:10.097Z,102115.72
2018-12-15T10:08:39.137Z,102107.47
2018-12-15T10:11:08.011Z,102113.81
2018-12-15T10:13:36.957Z,102115.08
2018-12-15T10:16:05.925Z,102112.91
2018-12-15T10:18:34.960Z,102103.31
2018-12-15T10:21:03.933Z,102108.01
2018-12-15T10:23:32.889Z,102108.95
2018-12-15T10:26:01.766Z,102096.92
2018-12-15T10:28:31.672Z,102095.98
2018-12-15T10:31:05.919Z,102087.78
2018-12-15T10:33:35.187Z,102081.61
2018-12-15T10:36:04.033Z,102080.17
2018-12-15T10:38:32.981Z,102077.69
2018-12-15T10:41:01.866Z,102079.32
2018-12-15T10:43:31.186Z,102079.77
2018-12-15T10:46:00.184Z,102068.64
2018-12-15T10:48:30.992Z,102060.30
2018-12-15T10:50:59.944Z,102056.39
2018-12-15T10:53:28.785Z,102059.45
2018-12-15T10:55:57.785Z,102058.87
2018-12-15T10:58:28.265Z,102052.69
2018-12-15T11:01:03.640Z,102059.58
2018-12-15T11:03:34.756Z,102048.58
2018-12-15T11:06:04.469Z,102050.69
2018-12-15T11:08:33.776Z,102045.77
2018-12-15T11:11:02.917Z,102048.03
2018-12-15T11:13:32.285Z,102042.75
2018-12-15T11:16:01.172Z,102034.52
2018-12-15T11:18:30.301Z,102024.45
2018-12-15T11:20:59.383Z,102021.71
2018-12-15T11:23:28.458Z,102014.22
2018-12-15T11:25:57.472Z,102014.17
2018-12-15T11:28:26.453Z,102017.59
2018-12-15T11:30:55.388Z,102019.09
2018-12-15T11:33:24.368Z,102014.94
2018-12-15T11:35:53.425Z,102007.89
2018-12-15T11:38:22.314Z,102006.53
2018-12-15T11:40:51.200Z,101996.83
2018-12-15T11:43:20.068Z,101998.64
2018-12-15T11:45:49.805Z,101990.39
2018-12-15T11:48:18.695Z,101981.64
2018-12-15T11:50:47.645Z,101967.07
2018-12-15T11:53:16.497Z,101960.42
2018-12-15T11:55:45.426Z,101954.64
2018-12-15T11:58:14.501Z,101951.97
2018-12-15T12:00:45.381Z,101945.78
2018-12-15T12:03:14.317Z,101936.17
2018-12-15T12:05:43.221Z,101934.75
2018-12-15T12:08:12.177Z,101933.09
2018-12-15T12:10:41.779Z,101926.16
2018-12-15T12:13:10.685Z,101926.11
2018-12-15T12:15:39.661Z,101920.93
2018-12-15T12:18:08.717Z,101913.65
2018-12-15T12:20:38.670Z,101913.65
2018-12-15T12:23:07.988Z,101916.61
2018-12-15T12:25:38.797Z,101906.20
2018-12-15T12:28:09.666Z,101908.81
2018-12-15T12:30:38.849Z,101892.78
2018-12-15T12:33:07.669Z,101900.97
2018-12-15T12:35:36.736Z,101909.09
2018-12-15T12:38:05.630Z,101910.25
2018-12-15T12:40:34.521Z,101906.09
2018-12-15T12:43:03.407Z,101897.58
2018-12-15T12:45:33.424Z,101908.64
2018-12-15T12:48:03.557Z,101906.48
2018-12-15T12:50:34.065Z,101906.02
2018-12-15T12:53:04.108Z,101903.36
2018-12-15T12:55:33.077Z,101902.45
2018-12-15T12:58:04.064Z,101906.37
2018-12-15T13:00:33.235Z,101900.23
2018-12-15T13:03:02.377Z,101898.92
2018-12-15T13:05:32.740Z,101891.13
2018-12-15T13:08:02.745Z,101887.09
2018-12-15T13:10:31.633Z,101882.27
2018-12-15T13:13:00.560Z,101887.95
2018-12-15T13:15:29.432Z,101891.42
2018-12-15T13:17:58.305Z,101895.80
2018-12-15T13:20:27.202Z,101886.76
2018-12-15T13:22:56.016Z,101896.70
2018-12-15T13:25:25.058Z,101887.50
2018-12-15T13:27:54.088Z,101892.44
2018-12-15T13:30:23.082Z,101893.80
2018-12-15T13:32:52.083Z,101887.02
2018-12-15T13:35:22.046Z,101884.25
2018-12-15T13:37:51.140Z,101886.21
2018-12-15T13:40:20.130Z,101882.23
2018-12-15T13:42:49.168Z,101893.88
2018-12-15T13:45:18.053Z,101897.34
2018-12-15T13:47:47.158Z,101888.03
2018-12-15T13:50:16.164Z,101884.70
2018-12-15T13:52:45.122Z,101884.59
2018-12-15T13:55:14.000Z,101874.94
2018-12-15T13:57:42.913Z,101878.80
2018-12-15T14:00:11.940Z,101861.75
2018-12-15T14:02:41.565Z,101866.63
2018-12-15T14:05:10.447Z,101855.94
2018-12-15T14:07:39.314Z,101843.07
2018-12-15T14:10:08.406Z,101851.72
2018-12-15T14:12:37.504Z,101846.70
2018-12-15T14:15:06.426Z,101849.16
2018-12-15T14:17:35.433Z,101840.45
2018-12-15T14:20:04.607Z,101837.33
2018-12-15T14:22:33.545Z,101827.05
2018-12-15T14:25:02.464Z,101818.06
2018-12-15T14:27:31.586Z,101814.03
2018-12-15T14:30:01.468Z,101814.42
2018-12-15T14:32:30.966Z,101804.08
2018-12-15T14:34:59.980Z,101805.90
2018-12-15T14:37:28.824Z,101806.86
2018-12-15T14:39:57.737Z,101800.73
2018-12-15T14:42:27.153Z,101792.38
2018-12-15T14:44:56.494Z,101780.42
2018-12-15T14:47:25.336Z,101780.02
2018-12-15T14:49:54.219Z,101772.52
2018-12-15T14:52:23.129Z,101766.16
2018-12-15T14:54:51.997Z,101765.36
2018-12-15T14:57:25.809Z,101759.22
2018-12-15T14:59:55.938Z,101755.30
2018-12-15T15:02:24.809Z,101753.08
2018-12-15T15:04:53.863Z,101748.14
2018-12-15T15:07:22.825Z,101746.98
2018-12-15T15:09:51.796Z,101737.49
2018-12-15T15:12:20.729Z,101733.69
2018-12-15T15:14:49.556Z,101728.58
2018-12-15T15:17:18.398Z,101709.36
2018-12-15T15:19:47.236Z,101713.33
2018-12-15T15:22:16.299Z,101697.71
2018-12-15T15:24:45.198Z,101699.98
2018-12-15T15:27:14.128Z,101693.22
2018-12-15T15:29:42.982Z,101698.19
2018-12-15T15:32:11.821Z,101708.75
2018-12-15T15:34:40.693Z,101711.42
2018-12-15T15:37:10.752Z,101717.49
2018-12-15T15:39:40.782Z,101709.03
2018-12-15T15:42:09.637Z,101706.50
2018-12-15T15:44:38.623Z,101700.73
2018-12-15T15:47:09.854Z,101701.48
2018-12-15T15:53:02.179Z,101671.10
2018-12-15T15:55:32.484Z,101670.77
2018-12-15T15:58:01.553Z,101660.72
2018-12-15T16:00:30.460Z,101655.09
2018-12-15T16:02:59.331Z,101655.95
2018-12-15T16:05:28.245Z,101659.61
2018-12-15T16:07:57.164Z,101663.92
2018-12-15T16:10:26.106Z,101672.38
2018-12-15T16:12:55.101Z,101658.13
2018-12-15T16:15:24.851Z,101663.64
2018-12-15T16:17:53.828Z,101655.46
2018-12-15T16:20:22.776Z,101657.56
2018-12-15T16:22:52.609Z,101658.36
2018-12-15T16:25:21.576Z,101658.58
2018-12-15T16:27:50.572Z,101655.52
2018-12-15T16:30:19.568Z,101656.42
2018-12-15T16:32:48.581Z,101658.41
2018-12-15T16:35:17.440Z,101650.47
2018-12-15T16:37:46.511Z,101649.16
2018-12-15T16:40:15.361Z,101651.58
2018-12-15T16:42:44.283Z,101650.58
2018-12-15T16:45:13.281Z,101642.30
2018-12-15T16:47:42.207Z,101648.20
2018-12-15T16:50:14.210Z,101625.33
2018-12-15T16:52:43.905Z,101596.52
2018-12-15T16:58:10.545Z,101630.69
2018-12-15T17:00:49.860Z,101621.77
2018-12-15T17:09:08.861Z,101627.28
2018-12-15T17:11:37.845Z,101623.70
2018-12-15T17:14:06.768Z,101612.30
2018-12-15T17:16:35.627Z,101609.03
2018-12-15T17:19:05.358Z,101597.28
2018-12-15T17:21:34.273Z,101595.07
2018-12-15T17:24:03.281Z,101597.62
2018-12-15T17:26:32.302Z,101597.17
2018-12-15T17:29:01.221Z,101593.57
2018-12-15T17:31:30.893Z,101590.91
2018-12-15T17:34:00.864Z,101586.65
2018-12-15T17:36:29.798Z,101580.97
2018-12-15T17:38:59.205Z,101575.75
2018-12-15T17:41:28.142Z,101566.22
2018-12-15T17:43:57.144Z,101560.55
2018-12-15T17:46:26.184Z,101559.47
2018-12-15T17:51:47.469Z,101539.95
2018-12-15T17:54:16.350Z,101540.06
2018-12-15T17:56:45.285Z,101524.38
2018-12-15T17:59:14.260Z,101518.88
2018-12-15T18:01:43.181Z,101517.69
2018-12-15T18:04:12.023Z,101503.50
2018-12-15T18:06:40.840Z,101505.88
2018-12-15T18:09:09.728Z,101487.61
2018-12-15T18:11:40.528Z,101492.84
2018-12-15T18:14:09.410Z,101485.91
2018-12-15T18:16:38.517Z,101475.88
2018-12-15T18:19:07.721Z,101469.73
2018-12-15T18:21:36.626Z,101463.33
2018-12-15T18:24:05.636Z,101456.65
2018-12-15T18:26:35.353Z,101451.42
2018-12-15T18:29:04.937Z,101437.28
2018-12-15T18:31:33.954Z,101433.03
2018-12-15T18:34:02.366Z,101434.52
2018-12-15T18:36:31.290Z,101428.38
2018-12-15T18:39:00.263Z,101422.16
2018-12-15T18:41:29.177Z,101417.84
2018-12-15T18:43:58.558Z,101427.52
2018-12-15T18:46:27.655Z,101432.06
2018-12-15T18:48:56.524Z,101440.00
2018-12-15T18:51:25.542Z,101437.91
2018-12-15T18:53:54.432Z,101426.28
2018-12-15T18:56:23.499Z,101420.21
2018-12-15T18:58:52.836Z,101413.69
2018-12-15T19:01:21.957Z,101412.73
2018-12-15T19:03:50.910Z,101397.76
2018-12-15T19:06:19.845Z,101393.56
2018-12-15T19:08:48.830Z,101402.92
2018-12-15T19:11:17.841Z,101395.88
2018-12-15T19:13:46.893Z,101411.20
2018-12-15T19:16:15.753Z,101403.48
2018-12-15T19:18:44.655Z,101406.37
2018-12-15T19:21:13.477Z,101395.03
2018-12-15T19:23:42.399Z,101396.97
2018-12-15T19:26:11.326Z,101390.00
2018-12-15T19:28:40.256Z,101383.41
2018-12-15T19:31:09.271Z,101384.20
2018-12-15T19:33:38.386Z,101379.88
2018-12-15T19:36:07.267Z,101380.39
2018-12-15T19:38:36.139Z,101373.48
2018-12-15T19:41:05.229Z,101370.48
2018-12-15T19:43:34.160Z,101354.22
2018-12-15T19:46:03.274Z,101354.55
2018-12-15T19:48:32.476Z,101349.84
2018-12-15T19:51:01.884Z,101341.78
2018-12-15T19:53:31.000Z,101334.72
2018-12-15T19:56:02.176Z,101336.48
2018-12-15T19:58:31.074Z,101328.59
2018-12-15T20:01:00.886Z,101329.95
2018-12-15T20:03:31.864Z,101316.40
2018-12-15T20:06:00.916Z,101328.81
2018-12-15T20:08:29.836Z,101329.72
2018-12-15T20:10:58.734Z,101314.02
2018-12-15T20:13:27.738Z,101316.97
2018-12-15T20:15:56.792Z,101319.18
2018-12-15T20:18:25.975Z,101312.09
2018-12-15T20:20:54.981Z,101310.34
2018-12-15T20:23:24.023Z,101303.42
2018-12-15T20:25:53.366Z,101300.99
2018-12-15T20:28:22.517Z,101296.62
2018-12-15T20:30:51.464Z,101294.28
2018-12-15T20:33:20.287Z,101281.20
2018-12-15T20:35:49.157Z,101279.73
2018-12-15T20:38:18.844Z,101275.88
2018-12-15T20:40:47.715Z,101278.77
2018-12-15T20:43:16.573Z,101274.86
2018-12-15T20:45:45.643Z,101261.83
2018-12-15T20:48:17.596Z,101260.46
2018-12-15T20:50:48.146Z,101257.91
2018-12-15T20:53:17.580Z,101254.80
2018-12-15T20:55:46.666Z,101246.98
2018-12-15T20:58:15.526Z,101244.09
2018-12-15T21:00:44.421Z,101240.81
2018-12-15T21:03:13.494Z,101242.40
2018-12-15T21:05:43.517Z,101241.48
2018-12-15T21:08:12.621Z,101240.52
2018-12-15T21:10:41.699Z,101227.03
2018-12-15T21:13:11.212Z,101220.13
2018-12-15T21:15:44.464Z,101222.34
2018-12-15T21:18:13.584Z,101216.73
2018-12-15T21:20:42.652Z,101194.84
2018-12-15T21:23:11.613Z,101205.91
2018-12-15T21:25:40.428Z,101196.06
2018-12-15T21:28:09.688Z,101197.42
2018-12-15T21:30:38.755Z,101180.42
2018-12-15T21:33:08.096Z,101177.97
2018-12-15T21:35:37.295Z,101177.91
2018-12-15T21:38:07.007Z,101166.03
2018-12-15T21:40:35.977Z,101155.87
2018-12-15T21:43:04.990Z,101160.30
2018-12-15T21:45:33.853Z,101158.54
2018-12-15T21:48:02.786Z,101149.81
2018-12-15T21:50:32.057Z,101153.02
2018-12-15T21:53:00.932Z,101140.50
2018-12-15T21:55:30.354Z,101139.98
2018-12-15T21:57:59.233Z,101131.64
2018-12-15T22:00:28.155Z,101126.53
2018-12-15T22:02:57.061Z,101114.41
2018-12-15T22:05:27.052Z,101096.48
2018-12-15T22:07:57.157Z,101090.84
2018-12-15T22:10:26.508Z,101083.94
2018-12-15T22:12:55.349Z,101079.50
2018-12-15T22:15:24.655Z,101064.34
2018-12-15T22:17:53.581Z,101059.27
2018-12-15T22:20:22.822Z,101049.28
2018-12-15T22:22:51.724Z,101030.65
2018-12-15T22:25:20.732Z,101029.05
2018-12-15T22:27:49.712Z,101027.41
2018-12-15T22:30:18.669Z,101019.53
2018-12-15T22:32:47.981Z,101016.34
2018-12-15T22:35:16.811Z,101006.51
2018-12-15T22:37:45.742Z,101006.31
2018-12-15T22:40:14.558Z,101003.77
2018-12-15T22:42:44.480Z,101000.06
2018-12-15T22:45:13.499Z,100995.25
2018-12-15T22:47:42.843Z,100987.52
2018-12-15T22:50:12.530Z,100987.00
2018-12-15T22:52:41.848Z,100975.67
2018-12-15T22:55:10.673Z,100981.01
2018-12-15T22:57:39.562Z,100972.34
2018-12-15T23:00:10.381Z,100975.80
2018-12-15T23:02:41.989Z,100982.94
2018-12-15T23:05:11.481Z,100969.97
2018-12-15T23:07:40.452Z,100960.46
2018-12-15T23:10:09.445Z,100963.45
2018-12-15T23:12:38.435Z,100955.58
2018-12-15T23:15:08.471Z,100946.91
2018-12-15T23:17:37.654Z,100953.03
2018-12-15T23:20:07.349Z,100945.09
2018-12-15T23:22:36.238Z,100943.59
2018-12-15T23:25:05.397Z,100952.97
2018-12-15T23:27:34.237Z,100949.88
2018-12-15T23:30:03.141Z,100950.81
2018-12-15T23:32:32.746Z,100946.72
2018-12-15T23:35:01.880Z,100956.25
2018-12-15T23:37:30.752Z,100954.95
2018-12-15T23:39:59.694Z,100957.42
2018-12-15T23:42:28.776Z,100970.45
2018-12-15T23:44:57.693Z,100967.46
2018-12-15T23:47:26.585Z,100979.05
2018-12-15T23:49:55.441Z,100988.50
2018-12-15T23:52:24.255Z,100993.42
2018-12-15T23:54:53.128Z,101001.01
2018-12-15T23:57:21.949Z,101001.73
2018-12-15T23:59:50.823Z,101012.67
